sensor_id;sensor_type;location;lat;lon;timestamp;P1;durP1;ratioP1;P2;durP2;ratioP2
25962;SDS011;13760;52.588;13.406;2023-03-26T00:00:58;7.47;;;2.30;;
25962;SDS011;13760;52.588;13.406;2023-03-26T00:03:24;6.13;;;2.42;;
25962;SDS011;13760;52.588;13.406;2023-03-26T00:06:02;6.30;;;2.65;;
25962;SDS011;13760;52.588;13.406;2023-03-26T00:08:32;3.40;;;1.63;;
25962;SDS011;13760;52.588;13.406;2023-03-26T00:10:59;7.13;;;2.00;;
25962;SDS011;13760;52.588;13.406;2023-03-26T00:13:26;3.35;;;2.38;;
25962;SDS011;13760;52.588;13.406;2023-03-26T00:15:54;6.03;;;2.40;;
25962;SDS011;13760;52.588;13.406;2023-03-26T00:18:20;4.18;;;2.53;;
25962;SDS011;13760;52.588;13.406;2023-03-26T00:20:49;6.38;;;2.67;;
25962;SDS011;13760;52.588;13.406;2023-03-26T00:23:16;5.43;;;2.47;;
25962;SDS011;13760;52.588;13.406;2023-03-26T00:25:41;4.82;;;2.30;;
25962;SDS011;13760;52.588;13.406;2023-03-26T00:28:09;4.05;;;2.47;;
25962;SDS011;13760;52.588;13.406;2023-03-26T00:30:35;5.22;;;2.58;;
25962;SDS011;13760;52.588;13.406;2023-03-26T00:33:01;5.03;;;2.42;;
25962;SDS011;13760;52.588;13.406;2023-03-26T00:35:27;7.22;;;2.42;;
25962;SDS011;13760;52.588;13.406;2023-03-26T00:37:54;6.13;;;2.33;;
25962;SDS011;13760;52.588;13.406;2023-03-26T00:40:19;5.35;;;2.63;;
25962;SDS011;13760;52.588;13.406;2023-03-26T00:42:45;3.55;;;2.25;;
25962;SDS011;13760;52.588;13.406;2023-03-26T00:45:11;6.88;;;2.05;;
25962;SDS011;13760;52.588;13.406;2023-03-26T00:47:37;5.40;;;2.17;;
25962;SDS011;13760;52.588;13.406;2023-03-26T00:50:04;7.35;;;2.33;;
25962;SDS011;13760;52.588;13.406;2023-03-26T00:52:30;5.55;;;2.33;;
25962;SDS011;13760;52.588;13.406;2023-03-26T00:54:56;5.45;;;1.90;;
25962;SDS011;13760;52.588;13.406;2023-03-26T00:57:21;6.50;;;2.05;;
25962;SDS011;13760;52.588;13.406;2023-03-26T00:59:47;5.25;;;1.70;;
25962;SDS011;13760;52.588;13.406;2023-03-26T01:02:15;7.57;;;1.88;;
25962;SDS011;13760;52.588;13.406;2023-03-26T01:04:53;4.65;;;1.63;;
25962;SDS011;13760;52.588;13.406;2023-03-26T01:07:26;6.90;;;2.08;;
25962;SDS011;13760;52.588;13.406;2023-03-26T01:09:53;4.07;;;1.70;;
25962;SDS011;13760;52.588;13.406;2023-03-26T01:12:23;5.00;;;1.63;;
25962;SDS011;13760;52.588;13.406;2023-03-26T01:14:56;4.22;;;1.67;;
25962;SDS011;13760;52.588;13.406;2023-03-26T01:17:24;2.88;;;1.70;;
25962;SDS011;13760;52.588;13.406;2023-03-26T01:22:51;5.50;;;1.73;;
25962;SDS011;13760;52.588;13.406;2023-03-26T01:25:20;5.57;;;1.83;;
25962;SDS011;13760;52.588;13.406;2023-03-26T01:27:49;4.90;;;1.70;;
25962;SDS011;13760;52.588;13.406;2023-03-26T01:30:27;6.85;;;2.05;;
25962;SDS011;13760;52.588;13.406;2023-03-26T01:41:36;4.50;;;1.75;;
25962;SDS011;13760;52.588;13.406;2023-03-26T01:44:10;3.85;;;1.70;;
25962;SDS011;13760;52.588;13.406;2023-03-26T01:46:58;5.95;;;2.38;;
25962;SDS011;13760;52.588;13.406;2023-03-26T01:49:28;4.57;;;1.73;;
25962;SDS011;13760;52.588;13.406;2023-03-26T01:51:55;3.05;;;1.80;;
25962;SDS011;13760;52.588;13.406;2023-03-26T01:54:22;7.20;;;2.08;;
25962;SDS011;13760;52.588;13.406;2023-03-26T01:57:01;3.80;;;1.77;;
25962;SDS011;13760;52.588;13.406;2023-03-26T01:59:44;4.57;;;1.52;;
25962;SDS011;13760;52.588;13.406;2023-03-26T02:05:14;5.00;;;1.88;;
25962;SDS011;13760;52.588;13.406;2023-03-26T02:08:07;4.93;;;1.92;;
25962;SDS011;13760;52.588;13.406;2023-03-26T02:10:45;3.45;;;1.38;;
25962;SDS011;13760;52.588;13.406;2023-03-26T02:13:18;5.28;;;1.73;;
25962;SDS011;13760;52.588;13.406;2023-03-26T02:16:03;6.70;;;1.90;;
25962;SDS011;13760;52.588;13.406;2023-03-26T02:18:41;2.00;;;1.30;;
25962;SDS011;13760;52.588;13.406;2023-03-26T02:21:20;6.25;;;1.83;;
25962;SDS011;13760;52.588;13.406;2023-03-26T02:23:54;6.72;;;1.92;;
25962;SDS011;13760;52.588;13.406;2023-03-26T02:26:32;4.05;;;1.63;;
25962;SDS011;13760;52.588;13.406;2023-03-26T02:29:11;2.80;;;1.45;;
25962;SDS011;13760;52.588;13.406;2023-03-26T02:31:37;3.33;;;1.55;;
25962;SDS011;13760;52.588;13.406;2023-03-26T02:34:17;2.30;;;1.45;;
25962;SDS011;13760;52.588;13.406;2023-03-26T02:36:46;4.90;;;1.77;;
25962;SDS011;13760;52.588;13.406;2023-03-26T02:39:15;4.40;;;1.88;;
25962;SDS011;13760;52.588;13.406;2023-03-26T02:41:41;5.13;;;1.70;;
25962;SDS011;13760;52.588;13.406;2023-03-26T02:44:07;8.10;;;2.63;;
25962;SDS011;13760;52.588;13.406;2023-03-26T02:46:32;5.15;;;2.17;;
25962;SDS011;13760;52.588;13.406;2023-03-26T02:49:04;6.43;;;2.20;;
25962;SDS011;13760;52.588;13.406;2023-03-26T02:51:42;4.00;;;2.22;;
25962;SDS011;13760;52.588;13.406;2023-03-26T02:54:08;7.22;;;2.50;;
25962;SDS011;13760;52.588;13.406;2023-03-26T02:56:34;4.00;;;2.25;;
25962;SDS011;13760;52.588;13.406;2023-03-26T02:59:01;6.35;;;2.78;;
25962;SDS011;13760;52.588;13.406;2023-03-26T03:01:31;7.40;;;2.47;;
25962;SDS011;13760;52.588;13.406;2023-03-26T03:04:01;6.57;;;2.38;;
25962;SDS011;13760;52.588;13.406;2023-03-26T03:06:35;6.85;;;2.40;;
25962;SDS011;13760;52.588;13.406;2023-03-26T03:09:39;3.33;;;2.40;;
25962;SDS011;13760;52.588;13.406;2023-03-26T03:12:05;6.47;;;2.70;;
25962;SDS011;13760;52.588;13.406;2023-03-26T03:14:34;4.97;;;2.40;;
25962;SDS011;13760;52.588;13.406;2023-03-26T03:17:13;6.35;;;3.08;;
25962;SDS011;13760;52.588;13.406;2023-03-26T03:19:51;8.23;;;2.97;;
25962;SDS011;13760;52.588;13.406;2023-03-26T03:22:25;5.20;;;2.63;;
25962;SDS011;13760;52.588;13.406;2023-03-26T03:25:02;5.38;;;2.40;;
25962;SDS011;13760;52.588;13.406;2023-03-26T03:27:35;5.32;;;2.58;;
25962;SDS011;13760;52.588;13.406;2023-03-26T03:30:07;8.65;;;3.17;;
25962;SDS011;13760;52.588;13.406;2023-03-26T03:32:35;6.40;;;2.22;;
25962;SDS011;13760;52.588;13.406;2023-03-26T03:35:06;5.55;;;2.35;;
25962;SDS011;13760;52.588;13.406;2023-03-26T03:37:33;7.43;;;2.30;;
25962;SDS011;13760;52.588;13.406;2023-03-26T03:40:08;5.63;;;2.30;;
25962;SDS011;13760;52.588;13.406;2023-03-26T03:45:49;4.03;;;1.65;;
25962;SDS011;13760;52.588;13.406;2023-03-26T03:48:18;4.93;;;2.60;;
25962;SDS011;13760;52.588;13.406;2023-03-26T03:50:44;4.97;;;2.00;;
25962;SDS011;13760;52.588;13.406;2023-03-26T03:53:20;7.63;;;2.30;;
25962;SDS011;13760;52.588;13.406;2023-03-26T03:56:22;7.63;;;2.65;;
25962;SDS011;13760;52.588;13.406;2023-03-26T03:58:50;8.95;;;2.72;;
25962;SDS011;13760;52.588;13.406;2023-03-26T04:01:16;6.68;;;2.65;;
25962;SDS011;13760;52.588;13.406;2023-03-26T04:03:49;6.07;;;2.25;;
25962;SDS011;13760;52.588;13.406;2023-03-26T04:06:22;8.82;;;2.35;;
25962;SDS011;13760;52.588;13.406;2023-03-26T04:08:56;5.63;;;2.45;;
25962;SDS011;13760;52.588;13.406;2023-03-26T04:11:26;5.43;;;2.50;;
25962;SDS011;13760;52.588;13.406;2023-03-26T04:13:51;6.10;;;2.30;;
25962;SDS011;13760;52.588;13.406;2023-03-26T04:16:17;8.25;;;2.50;;
25962;SDS011;13760;52.588;13.406;2023-03-26T04:18:43;5.88;;;2.33;;
25962;SDS011;13760;52.588;13.406;2023-03-26T04:21:11;4.78;;;2.38;;
25962;SDS011;13760;52.588;13.406;2023-03-26T04:23:39;5.43;;;2.40;;
25962;SDS011;13760;52.588;13.406;2023-03-26T04:26:06;7.65;;;2.42;;
25962;SDS011;13760;52.588;13.406;2023-03-26T04:28:50;9.10;;;2.83;;
25962;SDS011;13760;52.588;13.406;2023-03-26T04:31:20;7.15;;;2.50;;
25962;SDS011;13760;52.588;13.406;2023-03-26T04:33:48;5.03;;;2.30;;
25962;SDS011;13760;52.588;13.406;2023-03-26T04:36:18;9.60;;;2.90;;
25962;SDS011;13760;52.588;13.406;2023-03-26T04:38:46;5.10;;;2.50;;
25962;SDS011;13760;52.588;13.406;2023-03-26T04:41:23;5.97;;;2.25;;
25962;SDS011;13760;52.588;13.406;2023-03-26T04:46:41;8.00;;;2.90;;
25962;SDS011;13760;52.588;13.406;2023-03-26T04:49:27;5.80;;;2.47;;
25962;SDS011;13760;52.588;13.406;2023-03-26T04:51:53;5.78;;;2.88;;
25962;SDS011;13760;52.588;13.406;2023-03-26T04:54:21;7.85;;;2.90;;
25962;SDS011;13760;52.588;13.406;2023-03-26T04:57:00;5.90;;;2.55;;
25962;SDS011;13760;52.588;13.406;2023-03-26T04:59:40;8.40;;;2.55;;
25962;SDS011;13760;52.588;13.406;2023-03-26T05:02:07;6.40;;;1.98;;
25962;SDS011;13760;52.588;13.406;2023-03-26T05:04:34;6.07;;;2.75;;
25962;SDS011;13760;52.588;13.406;2023-03-26T05:07:03;6.22;;;2.40;;
25962;SDS011;13760;52.588;13.406;2023-03-26T05:09:31;6.15;;;1.98;;
25962;SDS011;13760;52.588;13.406;2023-03-26T05:11:56;3.60;;;2.58;;
25962;SDS011;13760;52.588;13.406;2023-03-26T05:14:22;4.78;;;2.22;;
25962;SDS011;13760;52.588;13.406;2023-03-26T05:16:48;4.03;;;2.03;;
25962;SDS011;13760;52.588;13.406;2023-03-26T05:19:17;7.38;;;2.15;;
25962;SDS011;13760;52.588;13.406;2023-03-26T05:21:42;8.98;;;2.55;;
25962;SDS011;13760;52.588;13.406;2023-03-26T05:24:08;6.10;;;2.53;;
25962;SDS011;13760;52.588;13.406;2023-03-26T05:26:34;4.63;;;1.90;;
25962;SDS011;13760;52.588;13.406;2023-03-26T05:29:00;7.53;;;2.25;;
25962;SDS011;13760;52.588;13.406;2023-03-26T05:31:27;6.13;;;2.38;;
25962;SDS011;13760;52.588;13.406;2023-03-26T05:34:01;5.28;;;2.60;;
25962;SDS011;13760;52.588;13.406;2023-03-26T05:36:27;4.00;;;2.70;;
25962;SDS011;13760;52.588;13.406;2023-03-26T05:38:53;4.88;;;2.22;;
25962;SDS011;13760;52.588;13.406;2023-03-26T05:41:19;5.57;;;2.30;;
25962;SDS011;13760;52.588;13.406;2023-03-26T05:43:44;4.80;;;2.40;;
25962;SDS011;13760;52.588;13.406;2023-03-26T05:46:11;8.95;;;2.58;;
25962;SDS011;13760;52.588;13.406;2023-03-26T05:48:37;7.55;;;2.60;;
25962;SDS011;13760;52.588;13.406;2023-03-26T05:51:03;8.55;;;2.80;;
25962;SDS011;13760;52.588;13.406;2023-03-26T05:53:29;6.57;;;2.67;;
25962;SDS011;13760;52.588;13.406;2023-03-26T05:55:56;7.93;;;2.55;;
25962;SDS011;13760;52.588;13.406;2023-03-26T05:58:25;8.85;;;2.40;;
25962;SDS011;13760;52.588;13.406;2023-03-26T06:01:11;7.55;;;2.05;;
25962;SDS011;13760;52.588;13.406;2023-03-26T06:06:13;4.10;;;1.33;;
25962;SDS011;13760;52.588;13.406;2023-03-26T06:08:44;2.78;;;1.13;;
25962;SDS011;13760;52.588;13.406;2023-03-26T06:11:16;3.50;;;1.70;;
25962;SDS011;13760;52.588;13.406;2023-03-26T06:13:43;4.15;;;1.40;;
25962;SDS011;13760;52.588;13.406;2023-03-26T06:16:15;2.75;;;1.20;;
25962;SDS011;13760;52.588;13.406;2023-03-26T06:18:41;6.30;;;1.08;;
25962;SDS011;13760;52.588;13.406;2023-03-26T06:21:08;4.60;;;1.20;;
25962;SDS011;13760;52.588;13.406;2023-03-26T06:23:39;2.45;;;1.08;;
25962;SDS011;13760;52.588;13.406;2023-03-26T06:26:05;5.68;;;1.17;;
25962;SDS011;13760;52.588;13.406;2023-03-26T06:28:31;6.03;;;1.20;;
25962;SDS011;13760;52.588;13.406;2023-03-26T06:31:02;5.45;;;1.27;;
25962;SDS011;13760;52.588;13.406;2023-03-26T06:33:46;5.13;;;1.40;;
25962;SDS011;13760;52.588;13.406;2023-03-26T06:36:12;8.82;;;1.73;;
25962;SDS011;13760;52.588;13.406;2023-03-26T06:38:38;4.07;;;1.30;;
25962;SDS011;13760;52.588;13.406;2023-03-26T06:41:04;3.95;;;1.42;;
25962;SDS011;13760;52.588;13.406;2023-03-26T06:43:30;6.68;;;1.55;;
25962;SDS011;13760;52.588;13.406;2023-03-26T06:46:00;6.35;;;1.70;;
25962;SDS011;13760;52.588;13.406;2023-03-26T06:48:26;4.90;;;1.30;;
25962;SDS011;13760;52.588;13.406;2023-03-26T06:50:52;4.75;;;1.60;;
25962;SDS011;13760;52.588;13.406;2023-03-26T06:53:18;10.85;;;1.60;;
25962;SDS011;13760;52.588;13.406;2023-03-26T06:55:44;3.92;;;1.42;;
25962;SDS011;13760;52.588;13.406;2023-03-26T06:58:30;4.45;;;1.35;;
25962;SDS011;13760;52.588;13.406;2023-03-26T07:01:00;4.13;;;1.52;;
25962;SDS011;13760;52.588;13.406;2023-03-26T07:03:35;5.32;;;1.58;;
25962;SDS011;13760;52.588;13.406;2023-03-26T07:06:01;10.15;;;1.60;;
25962;SDS011;13760;52.588;13.406;2023-03-26T07:09:05;5.80;;;1.73;;
25962;SDS011;13760;52.588;13.406;2023-03-26T07:11:30;4.68;;;1.80;;
25962;SDS011;13760;52.588;13.406;2023-03-26T07:13:56;9.57;;;1.92;;
25962;SDS011;13760;52.588;13.406;2023-03-26T07:16:24;7.97;;;1.88;;
25962;SDS011;13760;52.588;13.406;2023-03-26T07:18:50;8.30;;;1.65;;
25962;SDS011;13760;52.588;13.406;2023-03-26T07:21:18;7.57;;;1.65;;
25962;SDS011;13760;52.588;13.406;2023-03-26T07:23:49;5.45;;;1.40;;
25962;SDS011;13760;52.588;13.406;2023-03-26T07:32:30;4.95;;;1.80;;
25962;SDS011;13760;52.588;13.406;2023-03-26T07:35:00;8.05;;;1.65;;
25962;SDS011;13760;52.588;13.406;2023-03-26T07:40:45;6.88;;;1.52;;
25962;SDS011;13760;52.588;13.406;2023-03-26T07:43:17;6.63;;;1.48;;
25962;SDS011;13760;52.588;13.406;2023-03-26T07:45:53;6.20;;;1.95;;
25962;SDS011;13760;52.588;13.406;2023-03-26T07:48:20;4.50;;;1.40;;
25962;SDS011;13760;52.588;13.406;2023-03-26T07:50:51;7.45;;;1.70;;
25962;SDS011;13760;52.588;13.406;2023-03-26T07:53:17;4.55;;;1.42;;
25962;SDS011;13760;52.588;13.406;2023-03-26T08:01:11;6.00;;;2.00;;
25962;SDS011;13760;52.588;13.406;2023-03-26T08:06:35;6.10;;;1.70;;
25962;SDS011;13760;52.588;13.406;2023-03-26T08:09:11;6.07;;;1.63;;
25962;SDS011;13760;52.588;13.406;2023-03-26T08:11:56;7.90;;;1.75;;
25962;SDS011;13760;52.588;13.406;2023-03-26T08:14:50;4.18;;;1.63;;
25962;SDS011;13760;52.588;13.406;2023-03-26T08:17:58;7.90;;;1.55;;
25962;SDS011;13760;52.588;13.406;2023-03-26T08:22:58;6.90;;;2.05;;
25962;SDS011;13760;52.588;13.406;2023-03-26T08:25:49;5.93;;;1.73;;
25962;SDS011;13760;52.588;13.406;2023-03-26T08:31:23;6.38;;;2.08;;
25962;SDS011;13760;52.588;13.406;2023-03-26T08:33:57;8.48;;;2.28;;
25962;SDS011;13760;52.588;13.406;2023-03-26T08:36:22;9.18;;;2.00;;
25962;SDS011;13760;52.588;13.406;2023-03-26T08:38:48;8.25;;;1.92;;
25962;SDS011;13760;52.588;13.406;2023-03-26T08:44:37;6.53;;;1.52;;
25962;SDS011;13760;52.588;13.406;2023-03-26T08:55:55;8.45;;;2.20;;
25962;SDS011;13760;52.588;13.406;2023-03-26T09:07:26;5.93;;;1.77;;
25962;SDS011;13760;52.588;13.406;2023-03-26T09:16:06;7.20;;;1.90;;
25962;SDS011;13760;52.588;13.406;2023-03-26T09:21:32;6.65;;;2.40;;
25962;SDS011;13760;52.588;13.406;2023-03-26T09:24:19;6.85;;;2.08;;
25962;SDS011;13760;52.588;13.406;2023-03-26T09:27:08;7.35;;;2.03;;
25962;SDS011;13760;52.588;13.406;2023-03-26T09:33:01;8.10;;;2.20;;
25962;SDS011;13760;52.588;13.406;2023-03-26T09:44:06;13.55;;;6.90;;
25962;SDS011;13760;52.588;13.406;2023-03-26T09:49:52;13.30;;;4.35;;
25962;SDS011;13760;52.588;13.406;2023-03-26T09:52:46;9.75;;;2.65;;
25962;SDS011;13760;52.588;13.406;2023-03-26T09:58:21;9.18;;;2.65;;
25962;SDS011;13760;52.588;13.406;2023-03-26T10:01:26;9.55;;;2.00;;
25962;SDS011;13760;52.588;13.406;2023-03-26T10:25:49;15.27;;;2.88;;
25962;SDS011;13760;52.588;13.406;2023-03-26T10:31:31;10.52;;;3.10;;
25962;SDS011;13760;52.588;13.406;2023-03-26T10:37:32;10.23;;;2.75;;
25962;SDS011;13760;52.588;13.406;2023-03-26T10:45:54;10.00;;;2.90;;
25962;SDS011;13760;52.588;13.406;2023-03-26T10:52:22;8.48;;;3.08;;
25962;SDS011;13760;52.588;13.406;2023-03-26T10:59:06;9.45;;;2.95;;
25962;SDS011;13760;52.588;13.406;2023-03-26T11:05:36;9.98;;;3.17;;
25962;SDS011;13760;52.588;13.406;2023-03-26T11:19:47;11.95;;;2.75;;
25962;SDS011;13760;52.588;13.406;2023-03-26T11:25:37;11.85;;;2.75;;
25962;SDS011;13760;52.588;13.406;2023-03-26T11:48:44;7.65;;;2.53;;
25962;SDS011;13760;52.588;13.406;2023-03-26T11:51:30;7.10;;;2.67;;
25962;SDS011;13760;52.588;13.406;2023-03-26T11:54:20;5.75;;;2.30;;
25962;SDS011;13760;52.588;13.406;2023-03-26T11:56:56;9.43;;;2.38;;
25962;SDS011;13760;52.588;13.406;2023-03-26T11:59:50;7.85;;;2.25;;
25962;SDS011;13760;52.588;13.406;2023-03-26T12:02:38;8.15;;;2.30;;
25962;SDS011;13760;52.588;13.406;2023-03-26T12:10:27;6.43;;;2.00;;
25962;SDS011;13760;52.588;13.406;2023-03-26T12:16:20;4.70;;;1.90;;
25962;SDS011;13760;52.588;13.406;2023-03-26T12:18:56;6.38;;;1.85;;
25962;SDS011;13760;52.588;13.406;2023-03-26T12:21:50;7.43;;;1.75;;
25962;SDS011;13760;52.588;13.406;2023-03-26T12:24:32;8.88;;;2.60;;
25962;SDS011;13760;52.588;13.406;2023-03-26T12:29:59;4.50;;;1.70;;
25962;SDS011;13760;52.588;13.406;2023-03-26T12:32:44;3.08;;;1.70;;
25962;SDS011;13760;52.588;13.406;2023-03-26T12:35:15;6.72;;;2.72;;
25962;SDS011;13760;52.588;13.406;2023-03-26T12:37:43;8.57;;;2.00;;
25962;SDS011;13760;52.588;13.406;2023-03-26T12:40:27;5.75;;;1.52;;
25962;SDS011;13760;52.588;13.406;2023-03-26T12:43:03;4.82;;;1.80;;
25962;SDS011;13760;52.588;13.406;2023-03-26T12:45:49;5.43;;;1.80;;
25962;SDS011;13760;52.588;13.406;2023-03-26T12:48:26;3.60;;;1.50;;
25962;SDS011;13760;52.588;13.406;2023-03-26T12:56:22;5.03;;;1.48;;
25962;SDS011;13760;52.588;13.406;2023-03-26T13:07:30;5.97;;;1.48;;
25962;SDS011;13760;52.588;13.406;2023-03-26T13:18:53;4.50;;;1.50;;
25962;SDS011;13760;52.588;13.406;2023-03-26T13:30:20;3.47;;;1.42;;
25962;SDS011;13760;52.588;13.406;2023-03-26T13:35:54;4.82;;;1.52;;
25962;SDS011;13760;52.588;13.406;2023-03-26T13:38:33;3.95;;;1.50;;
25962;SDS011;13760;52.588;13.406;2023-03-26T13:49:15;4.72;;;1.40;;
25962;SDS011;13760;52.588;13.406;2023-03-26T13:59:51;3.67;;;1.50;;
25962;SDS011;13760;52.588;13.406;2023-03-26T14:02:46;4.72;;;1.50;;
25962;SDS011;13760;52.588;13.406;2023-03-26T14:05:27;4.88;;;1.38;;
25962;SDS011;13760;52.588;13.406;2023-03-26T14:08:31;4.55;;;1.27;;
25962;SDS011;13760;52.588;13.406;2023-03-26T14:10:54;7.22;;;1.60;;
25962;SDS011;13760;52.588;13.406;2023-03-26T14:13:32;4.35;;;1.50;;
25962;SDS011;13760;52.588;13.406;2023-03-26T14:19:13;2.95;;;1.05;;
25962;SDS011;13760;52.588;13.406;2023-03-26T14:45:30;2.95;;;1.52;;
25962;SDS011;13760;52.588;13.406;2023-03-26T14:49:26;3.50;;;1.20;;
25962;SDS011;13760;52.588;13.406;2023-03-26T15:16:24;7.20;;;1.88;;
25962;SDS011;13760;52.588;13.406;2023-03-26T15:22:22;3.63;;;1.38;;
25962;SDS011;13760;52.588;13.406;2023-03-26T15:25:27;6.88;;;1.80;;
25962;SDS011;13760;52.588;13.406;2023-03-26T15:45:34;5.55;;;1.90;;
25962;SDS011;13760;52.588;13.406;2023-03-26T16:03:51;6.00;;;1.65;;
25962;SDS011;13760;52.588;13.406;2023-03-26T16:07:21;4.47;;;1.50;;
25962;SDS011;13760;52.588;13.406;2023-03-26T16:17:01;4.43;;;1.55;;
25962;SDS011;13760;52.588;13.406;2023-03-26T16:23:00;7.18;;;2.20;;
25962;SDS011;13760;52.588;13.406;2023-03-26T16:33:18;6.72;;;2.30;;
25962;SDS011;13760;52.588;13.406;2023-03-26T16:38:45;6.18;;;1.90;;
25962;SDS011;13760;52.588;13.406;2023-03-26T16:41:58;4.70;;;2.08;;
25962;SDS011;13760;52.588;13.406;2023-03-26T16:50:49;5.43;;;1.90;;
25962;SDS011;13760;52.588;13.406;2023-03-26T16:56:36;7.25;;;2.33;;
25962;SDS011;13760;52.588;13.406;2023-03-26T17:04:53;11.05;;;2.70;;
25962;SDS011;13760;52.588;13.406;2023-03-26T17:07:31;6.88;;;2.45;;
25962;SDS011;13760;52.588;13.406;2023-03-26T17:10:24;7.53;;;3.10;;
25962;SDS011;13760;52.588;13.406;2023-03-26T17:13:09;7.00;;;2.40;;
25962;SDS011;13760;52.588;13.406;2023-03-26T17:32:56;25.92;;;12.23;;
25962;SDS011;13760;52.588;13.406;2023-03-26T17:35:35;31.00;;;17.33;;
25962;SDS011;13760;52.588;13.406;2023-03-26T17:40:47;30.00;;;16.90;;
25962;SDS011;13760;52.588;13.406;2023-03-26T17:46:19;15.45;;;9.77;;
25962;SDS011;13760;52.588;13.406;2023-03-26T17:57:35;8.40;;;3.50;;
25962;SDS011;13760;52.588;13.406;2023-03-26T18:00:05;7.78;;;3.45;;
25962;SDS011;13760;52.588;13.406;2023-03-26T18:02:51;6.47;;;3.25;;
25962;SDS011;13760;52.588;13.406;2023-03-26T18:05:29;7.82;;;3.47;;
25962;SDS011;13760;52.588;13.406;2023-03-26T18:19:03;8.68;;;3.45;;
25962;SDS011;13760;52.588;13.406;2023-03-26T18:21:49;7.25;;;3.90;;
25962;SDS011;13760;52.588;13.406;2023-03-26T18:24:22;6.85;;;3.88;;
25962;SDS011;13760;52.588;13.406;2023-03-26T18:29:45;10.68;;;4.05;;
25962;SDS011;13760;52.588;13.406;2023-03-26T18:32:25;9.35;;;3.55;;
25962;SDS011;13760;52.588;13.406;2023-03-26T18:34:56;16.58;;;5.75;;
25962;SDS011;13760;52.588;13.406;2023-03-26T18:42:52;14.40;;;4.13;;
25962;SDS011;13760;52.588;13.406;2023-03-26T18:47:57;11.60;;;4.45;;
25962;SDS011;13760;52.588;13.406;2023-03-26T18:50:31;12.85;;;3.70;;
25962;SDS011;13760;52.588;13.406;2023-03-26T18:53:02;10.10;;;3.45;;
25962;SDS011;13760;52.588;13.406;2023-03-26T18:58:54;14.77;;;3.90;;
25962;SDS011;13760;52.588;13.406;2023-03-26T19:01:21;13.75;;;3.58;;
25962;SDS011;13760;52.588;13.406;2023-03-26T19:03:52;13.32;;;3.70;;
25962;SDS011;13760;52.588;13.406;2023-03-26T19:06:19;13.48;;;3.40;;
25962;SDS011;13760;52.588;13.406;2023-03-26T19:08:45;12.68;;;4.00;;
25962;SDS011;13760;52.588;13.406;2023-03-26T19:11:14;8.93;;;3.33;;
25962;SDS011;13760;52.588;13.406;2023-03-26T19:13:48;13.35;;;3.90;;
25962;SDS011;13760;52.588;13.406;2023-03-26T19:16:22;13.07;;;3.88;;
25962;SDS011;13760;52.588;13.406;2023-03-26T19:18:52;15.38;;;3.78;;
25962;SDS011;13760;52.588;13.406;2023-03-26T19:21:30;15.30;;;3.35;;
25962;SDS011;13760;52.588;13.406;2023-03-26T19:23:58;13.18;;;3.38;;
25962;SDS011;13760;52.588;13.406;2023-03-26T19:26:28;11.55;;;3.30;;
25962;SDS011;13760;52.588;13.406;2023-03-26T19:29:04;10.48;;;3.00;;
25962;SDS011;13760;52.588;13.406;2023-03-26T19:34:03;11.13;;;3.22;;
25962;SDS011;13760;52.588;13.406;2023-03-26T19:42:26;14.90;;;3.67;;
25962;SDS011;13760;52.588;13.406;2023-03-26T19:44:56;16.95;;;3.80;;
25962;SDS011;13760;52.588;13.406;2023-03-26T19:47:56;15.40;;;3.75;;
25962;SDS011;13760;52.588;13.406;2023-03-26T19:50:28;14.48;;;3.80;;
25962;SDS011;13760;52.588;13.406;2023-03-26T19:53:28;9.90;;;3.50;;
25962;SDS011;13760;52.588;13.406;2023-03-26T19:56:09;16.67;;;3.53;;
25962;SDS011;13760;52.588;13.406;2023-03-26T19:58:42;14.23;;;3.67;;
25962;SDS011;13760;52.588;13.406;2023-03-26T20:01:15;18.55;;;3.53;;
25962;SDS011;13760;52.588;13.406;2023-03-26T20:03:53;14.07;;;3.25;;
25962;SDS011;13760;52.588;13.406;2023-03-26T20:06:21;18.50;;;3.47;;
25962;SDS011;13760;52.588;13.406;2023-03-26T20:08:48;15.38;;;3.58;;
25962;SDS011;13760;52.588;13.406;2023-03-26T20:13:47;16.08;;;3.88;;
25962;SDS011;13760;52.588;13.406;2023-03-26T20:18:56;14.43;;;3.47;;
25962;SDS011;13760;52.588;13.406;2023-03-26T20:21:35;16.58;;;3.38;;
25962;SDS011;13760;52.588;13.406;2023-03-26T20:24:04;14.85;;;3.38;;
25962;SDS011;13760;52.588;13.406;2023-03-26T20:26:43;17.02;;;3.55;;
25962;SDS011;13760;52.588;13.406;2023-03-26T20:29:13;21.35;;;4.00;;
25962;SDS011;13760;52.588;13.406;2023-03-26T20:31:39;16.83;;;3.95;;
25962;SDS011;13760;52.588;13.406;2023-03-26T20:36:45;21.52;;;3.72;;
25962;SDS011;13760;52.588;13.406;2023-03-26T20:39:11;17.67;;;3.65;;
25962;SDS011;13760;52.588;13.406;2023-03-26T20:41:44;18.05;;;3.78;;
25962;SDS011;13760;52.588;13.406;2023-03-26T20:44:12;17.55;;;3.70;;
25962;SDS011;13760;52.588;13.406;2023-03-26T20:46:46;21.20;;;3.53;;
25962;SDS011;13760;52.588;13.406;2023-03-26T20:49:22;15.90;;;3.83;;
25962;SDS011;13760;52.588;13.406;2023-03-26T20:51:48;24.55;;;3.90;;
25962;SDS011;13760;52.588;13.406;2023-03-26T20:54:15;23.83;;;4.22;;
25962;SDS011;13760;52.588;13.406;2023-03-26T20:56:43;16.85;;;3.55;;
25962;SDS011;13760;52.588;13.406;2023-03-26T20:59:19;19.42;;;3.53;;
25962;SDS011;13760;52.588;13.406;2023-03-26T21:01:46;16.42;;;3.95;;
25962;SDS011;13760;52.588;13.406;2023-03-26T21:04:15;18.67;;;3.95;;
25962;SDS011;13760;52.588;13.406;2023-03-26T21:06:42;22.70;;;3.65;;
25962;SDS011;13760;52.588;13.406;2023-03-26T21:09:10;24.27;;;4.00;;
25962;SDS011;13760;52.588;13.406;2023-03-26T21:11:44;17.83;;;3.85;;
25962;SDS011;13760;52.588;13.406;2023-03-26T21:14:20;17.08;;;3.58;;
25962;SDS011;13760;52.588;13.406;2023-03-26T21:16:51;21.17;;;3.97;;
25962;SDS011;13760;52.588;13.406;2023-03-26T21:19:17;16.17;;;3.80;;
25962;SDS011;13760;52.588;13.406;2023-03-26T21:21:51;15.45;;;3.97;;
25962;SDS011;13760;52.588;13.406;2023-03-26T21:24:27;18.05;;;3.00;;
25962;SDS011;13760;52.588;13.406;2023-03-26T21:27:00;20.23;;;4.28;;
25962;SDS011;13760;52.588;13.406;2023-03-26T21:29:52;15.10;;;2.85;;
25962;SDS011;13760;52.588;13.406;2023-03-26T21:32:19;21.10;;;3.67;;
25962;SDS011;13760;52.588;13.406;2023-03-26T21:34:45;20.27;;;3.38;;
25962;SDS011;13760;52.588;13.406;2023-03-26T21:37:11;17.58;;;3.50;;
25962;SDS011;13760;52.588;13.406;2023-03-26T21:39:37;19.98;;;3.72;;
25962;SDS011;13760;52.588;13.406;2023-03-26T21:42:03;20.42;;;3.35;;
25962;SDS011;13760;52.588;13.406;2023-03-26T21:44:29;21.33;;;3.95;;
25962;SDS011;13760;52.588;13.406;2023-03-26T21:46:55;17.17;;;3.38;;
25962;SDS011;13760;52.588;13.406;2023-03-26T21:49:26;25.65;;;4.13;;
25962;SDS011;13760;52.588;13.406;2023-03-26T21:51:52;16.23;;;3.00;;
25962;SDS011;13760;52.588;13.406;2023-03-26T21:54:23;18.98;;;3.75;;
25962;SDS011;13760;52.588;13.406;2023-03-26T21:59:56;12.10;;;3.38;;
25962;SDS011;13760;52.588;13.406;2023-03-26T22:05:07;21.90;;;3.47;;
25962;SDS011;13760;52.588;13.406;2023-03-26T22:10:16;15.15;;;3.00;;
25962;SDS011;13760;52.588;13.406;2023-03-26T22:12:45;25.70;;;3.90;;
25962;SDS011;13760;52.588;13.406;2023-03-26T22:15:10;15.32;;;3.40;;
25962;SDS011;13760;52.588;13.406;2023-03-26T22:17:56;15.77;;;4.15;;
25962;SDS011;13760;52.588;13.406;2023-03-26T22:20:25;13.25;;;3.17;;
25962;SDS011;13760;52.588;13.406;2023-03-26T22:22:53;15.75;;;3.20;;
25962;SDS011;13760;52.588;13.406;2023-03-26T22:25:23;16.90;;;3.67;;
25962;SDS011;13760;52.588;13.406;2023-03-26T22:27:49;24.92;;;4.25;;
25962;SDS011;13760;52.588;13.406;2023-03-26T22:30:15;18.85;;;4.22;;